Time;durP1;ratioP1;P1;durP2;ratioP2;P2;SDS_P1;SDS_P2;PMS_P1;PMS_P2;Temp;Humidity;BMP_temperature;BMP_pressure;BME280_temperature;BME280_humidity;BME280_pressure;Samples;Min_cycle;Max_cycle;Signal;HPM_P1;HPM_P2
2023/11/15 06:02:36;;;;;;;2.47;1.57;;;;;;;;;;5461891;23;20554;-74
2023/11/15 06:05:02;;;;;;;2.20;1.20;;;;;;;;;;4977192;28;20415;-72
2023/11/15 06:07:29;;;;;;;3.27;2.00;;;;;;;;;;4976113;28;20442;-74
2023/11/15 06:09:55;;;;;;;1.50;1.30;;;;;;;;;;4975767;28;20449;-74
2023/11/15 06:12:22;;;;;;;2.23;1.40;;;;;;;;;;4974524;28;20581;-74
2023/11/15 06:14:48;;;;;;;5.37;1.70;;;;;;;;;;4976742;28;20429;-73
2023/11/15 06:17:14;;;;;;;2.53;1.83;;;;;;;;;;4976904;28;20759;-73
2023/11/15 06:19:41;;;;;;;3.07;1.30;;;;;;;;;;4978632;28;20414;-74
2023/11/15 06:22:07;;;;;;;6.17;2.73;;;;;;;;;;4976744;28;20979;-74
2023/11/15 06:24:34;;;;;;;5.10;2.13;;;;;;;;;;4976613;28;20412;-73
2023/11/15 06:27:00;;;;;;;6.80;2.07;;;;;;;;;;4977184;28;20463;-74
2023/11/15 06:29:26;;;;;;;2.57;1.50;;;;;;;;;;4975086;28;20478;-73
2023/11/15 06:31:54;;;;;;;5.00;1.93;;;;;;;;;;4976427;28;20447;-74
2023/11/15 06:34:19;;;;;;;4.80;1.70;;;;;;;;;;4969491;28;20425;-74
2023/11/15 06:36:46;;;;;;;2.40;1.47;;;;;;;;;;4956429;29;20420;-74
2023/11/15 06:39:12;;;;;;;3.23;1.50;;;;;;;;;;4955959;29;20508;-73
2023/11/15 06:41:38;;;;;;;3.50;1.43;;;;;;;;;;4955974;29;20982;-74
2023/11/15 06:44:07;;;;;;;5.60;2.27;;;;;;;;;;4955811;29;20444;-73
2023/11/15 06:46:38;;;;;;;1.27;1.20;;;;;;;;;;4954763;29;20500;-74
2023/11/15 06:49:04;;;;;;;2.20;1.50;;;;;;;;;;4956274;29;20758;-74
2023/11/15 06:51:30;;;;;;;7.90;2.50;;;;;;;;;;4956671;29;20515;-74
2023/11/15 06:53:56;;;;;;;2.50;1.50;;;;;;;;;;4956071;29;20460;-73
2023/11/15 06:56:22;;;;;;;4.73;1.83;;;;;;;;;;4955033;29;20432;-74
2023/11/15 06:58:48;;;;;;;1.90;1.40;;;;;;;;;;4956351;29;20464;-74
2023/11/15 07:01:14;;;;;;;4.07;2.13;;;;;;;;;;4954981;29;20495;-74
2023/11/15 07:03:43;;;;;;;6.20;2.03;;;;;;;;;;4974857;28;20443;-74
2023/11/15 07:06:09;;;;;;;3.23;1.77;;;;;;;;;;4977354;28;20463;-73
2023/11/15 07:08:35;;;;;;;5.97;1.80;;;;;;;;;;4979417;28;20412;-74
2023/11/15 07:11:01;;;;;;;2.23;1.47;;;;;;;;;;4976894;28;20439;-74
2023/11/15 07:13:29;;;;;;;2.17;1.40;;;;;;;;;;4973744;28;20416;-74
2023/11/15 07:16:01;;;;;;;4.80;1.50;;;;;;;;;;4974414;28;20419;-76
2023/11/15 07:18:28;;;;;;;2.90;1.80;;;;;;;;;;4974885;28;20427;-70
2023/11/15 07:20:55;;;;;;;7.13;1.73;;;;;;;;;;4973983;28;20443;-69
2023/11/15 07:23:21;;;;;;;4.80;1.57;;;;;;;;;;4973679;28;20419;-69
2023/11/15 07:25:48;;;;;;;2.83;1.70;;;;;;;;;;4973890;28;20447;-74
2023/11/15 07:28:14;;;;;;;8.90;2.00;;;;;;;;;;4974246;28;20511;-73
2023/11/15 07:30:42;;;;;;;4.50;2.00;;;;;;;;;;4963050;28;20440;-74
2023/11/15 07:33:08;;;;;;;7.60;1.67;;;;;;;;;;4970898;28;20415;-74
2023/11/15 07:35:36;;;;;;;4.53;1.73;;;;;;;;;;4971120;28;20428;-74
2023/11/15 07:38:02;;;;;;;11.00;2.40;;;;;;;;;;4963095;28;20889;-74
2023/11/15 07:40:28;;;;;;;5.37;2.57;;;;;;;;;;4972532;28;20427;-74
2023/11/15 07:42:54;;;;;;;7.90;2.90;;;;;;;;;;4960644;28;20421;-74
2023/11/15 07:45:20;;;;;;;7.00;1.80;;;;;;;;;;4953247;29;20457;-74
2023/11/15 07:47:46;;;;;;;7.47;2.30;;;;;;;;;;4954444;29;20425;-74
2023/11/15 07:50:15;;;;;;;4.33;2.50;;;;;;;;;;4954440;29;20409;-74
2023/11/15 07:52:41;;;;;;;4.93;2.53;;;;;;;;;;4954957;29;20416;-72
2023/11/15 07:55:07;;;;;;;6.90;2.10;;;;;;;;;;4966324;28;20503;-73
2023/11/15 07:57:33;;;;;;;4.40;2.00;;;;;;;;;;4969997;28;20409;-72
2023/11/15 07:59:59;;;;;;;6.53;2.00;;;;;;;;;;4952837;29;20520;-72
2023/11/15 08:02:26;;;;;;;7.87;3.00;;;;;;;;;;4965074;28;20563;-71
2023/11/15 08:04:52;;;;;;;7.80;2.63;;;;;;;;;;4971808;28;20427;-74
2023/11/15 08:07:18;;;;;;;5.90;3.60;;;;;;;;;;4971903;28;20474;-73
2023/11/15 08:09:47;;;;;;;5.83;3.20;;;;;;;;;;4973282;28;20423;-72
2023/11/15 08:12:13;;;;;;;6.93;2.13;;;;;;;;;;4962209;28;20429;-73
2023/11/15 08:14:39;;;;;;;12.50;2.33;;;;;;;;;;4962302;28;20419;-74
2023/11/15 08:17:05;;;;;;;7.47;1.80;;;;;;;;;;4972883;28;20412;-74
2023/11/15 08:19:32;;;;;;;5.50;1.80;;;;;;;;;;4990381;28;20485;-73
2023/11/15 08:21:58;;;;;;;8.07;2.20;;;;;;;;;;4992856;28;20443;-72
2023/11/15 08:24:25;;;;;;;4.37;1.87;;;;;;;;;;4990332;28;20430;-72
2023/11/15 08:26:53;;;;;;;5.30;2.27;;;;;;;;;;4991419;28;20466;-72
2023/11/15 08:29:19;;;;;;;13.47;2.20;;;;;;;;;;4962831;28;20780;-73
2023/11/15 08:31:45;;;;;;;7.67;2.73;;;;;;;;;;4960520;28;20440;-73
2023/11/15 08:34:12;;;;;;;11.53;2.50;;;;;;;;;;4972655;28;20419;-76
2023/11/15 08:36:38;;;;;;;4.90;1.90;;;;;;;;;;4962426;28;20498;-76
2023/11/15 08:39:11;;;;;;;5.83;2.10;;;;;;;;;;4974132;28;20483;-76
2023/11/15 08:41:37;;;;;;;7.60;2.27;;;;;;;;;;4960082;28;20940;-74
2023/11/15 08:44:03;;;;;;;5.70;2.10;;;;;;;;;;4954218;29;20499;-76
2023/11/15 08:46:29;;;;;;;4.07;1.80;;;;;;;;;;4960019;28;20973;-75
2023/11/15 08:48:55;;;;;;;12.43;1.83;;;;;;;;;;4973801;28;20412;-75
2023/11/15 08:51:23;;;;;;;9.23;1.70;;;;;;;;;;4972911;28;20440;-75
2023/11/15 08:53:49;;;;;;;7.30;1.90;;;;;;;;;;4972130;28;20428;-77
2023/11/15 08:56:15;;;;;;;7.13;2.00;;;;;;;;;;4973017;28;20420;-75
2023/11/15 08:58:42;;;;;;;7.23;1.53;;;;;;;;;;4974080;28;20404;-76
2023/11/15 09:01:09;;;;;;;17.97;1.93;;;;;;;;;;4973963;28;20436;-74
2023/11/15 09:03:38;;;;;;;4.07;1.70;;;;;;;;;;4972656;28;20501;-76
2023/11/15 09:06:04;;;;;;;3.57;2.13;;;;;;;;;;4973684;28;20462;-75
2023/11/15 09:08:31;;;;;;;4.53;1.70;;;;;;;;;;4971382;28;20912;-76
2023/11/15 09:10:57;;;;;;;4.47;1.90;;;;;;;;;;4964909;28;20428;-75
2023/11/15 09:13:23;;;;;;;9.57;2.93;;;;;;;;;;4955342;28;20575;-75
2023/11/15 09:15:52;;;;;;;6.07;1.87;;;;;;;;;;4955639;29;20956;-76
2023/11/15 09:18:21;;;;;;;6.13;1.50;;;;;;;;;;4972675;28;20424;-76
2023/11/15 09:20:49;;;;;;;11.50;1.97;;;;;;;;;;4973176;28;20439;-76
2023/11/15 09:23:16;;;;;;;4.57;2.17;;;;;;;;;;4971670;28;20428;-75
2023/11/15 09:25:42;;;;;;;3.53;2.27;;;;;;;;;;4972727;28;20491;-76
2023/11/15 09:28:10;;;;;;;7.73;2.00;;;;;;;;;;4974252;28;20426;-75
2023/11/15 09:30:36;;;;;;;3.77;1.33;;;;;;;;;;4974638;28;20806;-76
2023/11/15 09:33:05;;;;;;;3.43;1.33;;;;;;;;;;4972969;28;20424;-76
2023/11/15 09:35:34;;;;;;;6.03;2.00;;;;;;;;;;4972763;28;20418;-75
2023/11/15 09:38:00;;;;;;;2.30;1.10;;;;;;;;;;4971757;28;20497;-76
2023/11/15 09:40:27;;;;;;;4.50;1.57;;;;;;;;;;4975857;28;20411;-75
2023/11/15 09:42:54;;;;;;;3.30;1.50;;;;;;;;;;4971759;28;20420;-75
2023/11/15 09:45:20;;;;;;;5.03;1.30;;;;;;;;;;4975593;28;20463;-75
2023/11/15 09:47:47;;;;;;;5.23;1.50;;;;;;;;;;4975175;28;20438;-75
2023/11/15 09:50:17;;;;;;;5.20;1.30;;;;;;;;;;4976522;28;20415;-76
2023/11/15 09:52:47;;;;;;;2.77;1.40;;;;;;;;;;4975716;28;20424;-75
2023/11/15 09:55:13;;;;;;;2.40;1.10;;;;;;;;;;4974499;28;20414;-75
2023/11/15 09:57:39;;;;;;;4.40;1.23;;;;;;;;;;4960875;28;20425;-73
2023/11/15 10:00:11;;;;;;;5.03;1.30;;;;;;;;;;4956373;29;20773;-72
2023/11/15 10:02:37;;;;;;;2.67;1.77;;;;;;;;;;4967052;28;20958;-73
2023/11/15 10:05:20;;;;;;;4.50;1.80;;;;;;;;;;4979488;28;20408;-74
2023/11/15 10:07:47;;;;;;;2.63;1.13;;;;;;;;;;4979246;28;20782;-73
2023/11/15 10:10:20;;;;;;;1.37;1.10;;;;;;;;;;4978837;28;20494;-73
2023/11/15 10:12:49;;;;;;;4.70;1.43;;;;;;;;;;4979131;28;20420;-73
2023/11/15 10:15:18;;;;;;;2.10;0.90;;;;;;;;;;4979324;28;20451;-72
2023/11/15 10:17:44;;;;;;;1.87;1.10;;;;;;;;;;4971861;28;20431;-72
2023/11/15 10:20:18;;;;;;;2.20;1.50;;;;;;;;;;4981444;28;20416;-72
2023/11/15 10:22:45;;;;;;;1.27;1.20;;;;;;;;;;4979176;28;20810;-73
2023/11/15 10:25:13;;;;;;;3.63;1.50;;;;;;;;;;4977633;28;20408;-72
2023/11/15 10:27:39;;;;;;;1.17;0.87;;;;;;;;;;4971162;28;20416;-73
2023/11/15 10:30:15;;;;;;;2.40;1.27;;;;;;;;;;4976808;28;20500;-73
2023/11/15 10:32:42;;;;;;;1.43;0.90;;;;;;;;;;4977401;28;20482;-72
2023/11/15 10:35:08;;;;;;;2.30;1.30;;;;;;;;;;4977244;28;20938;-73
2023/11/15 10:37:47;;;;;;;5.77;1.30;;;;;;;;;;4976590;28;20431;-73
2023/11/15 10:40:13;;;;;;;2.60;1.60;;;;;;;;;;4978175;28;20435;-73
2023/11/15 10:42:41;;;;;;;7.70;1.70;;;;;;;;;;4978421;28;20783;-72
2023/11/15 10:45:11;;;;;;;3.10;1.43;;;;;;;;;;4976217;28;20502;-72
2023/11/15 10:47:39;;;;;;;1.20;0.97;;;;;;;;;;4977979;28;20471;-73
2023/11/15 10:50:08;;;;;;;9.27;2.07;;;;;;;;;;4977006;28;20412;-72
2023/11/15 10:52:34;;;;;;;1.40;1.13;;;;;;;;;;4976531;28;20508;-72
2023/11/15 10:55:01;;;;;;;2.53;1.10;;;;;;;;;;4963768;28;20423;-72
2023/11/15 10:57:27;;;;;;;2.93;1.20;;;;;;;;;;4971623;28;20422;-73
2023/11/15 10:59:54;;;;;;;1.17;1.10;;;;;;;;;;4978129;28;20412;-73
2023/11/15 11:02:20;;;;;;;2.00;1.07;;;;;;;;;;4976912;28;20526;-72
2023/11/15 11:04:47;;;;;;;2.53;1.40;;;;;;;;;;4967873;28;20436;-74
2023/11/15 11:07:17;;;;;;;5.70;1.43;;;;;;;;;;4970026;28;20522;-72
2023/11/15 11:09:48;;;;;;;3.00;1.20;;;;;;;;;;4975678;28;20417;-72
2023/11/15 11:12:22;;;;;;;1.43;1.00;;;;;;;;;;4977724;28;20467;-72
2023/11/15 11:14:58;;;;;;;4.43;1.43;;;;;;;;;;4963409;28;20413;-73
2023/11/15 11:17:34;;;;;;;4.10;2.20;;;;;;;;;;4963792;28;20468;-73
2023/11/15 11:20:01;;;;;;;6.33;1.37;;;;;;;;;;4977428;28;20438;-73
2023/11/15 11:22:27;;;;;;;7.73;1.23;;;;;;;;;;4978231;28;20439;-73
2023/11/15 11:24:59;;;;;;;3.60;1.10;;;;;;;;;;4976788;28;20504;-74
2023/11/15 11:27:29;;;;;;;4.13;1.57;;;;;;;;;;4977440;28;20431;-73
2023/11/15 11:29:58;;;;;;;6.37;1.53;;;;;;;;;;4976592;28;20436;-74
2023/11/15 11:32:28;;;;;;;1.87;1.50;;;;;;;;;;4971973;28;20998;-72
2023/11/15 11:35:00;;;;;;;5.80;1.80;;;;;;;;;;4974907;28;20409;-71
2023/11/15 11:37:44;;;;;;;3.63;1.33;;;;;;;;;;4973946;28;20439;-73
2023/11/15 11:40:13;;;;;;;6.27;2.33;;;;;;;;;;4962550;28;20417;-73
2023/11/15 11:42:40;;;;;;;3.50;1.20;;;;;;;;;;4970884;28;20411;-75
2023/11/15 11:45:07;;;;;;;4.10;1.57;;;;;;;;;;4991789;28;20411;-72
2023/11/15 11:47:48;;;;;;;5.93;1.57;;;;;;;;;;4963113;28;20532;-73
2023/11/15 11:50:24;;;;;;;5.50;1.43;;;;;;;;;;4974675;28;20435;-72
2023/11/15 11:52:53;;;;;;;4.00;1.37;;;;;;;;;;4969387;28;20416;-72
2023/11/15 11:55:19;;;;;;;2.97;1.37;;;;;;;;;;4973628;28;20412;-74
2023/11/15 11:57:45;;;;;;;3.00;1.30;;;;;;;;;;4973337;28;20907;-73
2023/11/15 12:00:13;;;;;;;18.40;1.50;;;;;;;;;;4973909;28;20411;-74
2023/11/15 12:02:40;;;;;;;4.43;2.27;;;;;;;;;;4972520;28;20428;-73
2023/11/15 12:05:06;;;;;;;2.27;1.10;;;;;;;;;;4972990;28;20408;-74
2023/11/15 12:07:32;;;;;;;6.00;1.33;;;;;;;;;;4972990;28;20444;-73
2023/11/15 12:10:02;;;;;;;4.83;2.47;;;;;;;;;;4974061;28;20435;-73
2023/11/15 12:12:28;;;;;;;7.00;1.40;;;;;;;;;;4973475;28;20451;-74
2023/11/15 12:14:59;;;;;;;3.87;1.63;;;;;;;;;;4986333;23;21006;-74
2023/11/15 12:17:36;;;;;;;3.87;1.50;;;;;;;;;;4973102;28;20423;-73
2023/11/15 12:20:02;;;;;;;5.60;1.70;;;;;;;;;;4972875;28;20422;-73
2023/11/15 12:22:28;;;;;;;3.93;1.50;;;;;;;;;;4972482;28;20800;-73
2023/11/15 12:24:55;;;;;;;3.13;1.47;;;;;;;;;;4972937;28;20463;-74
2023/11/15 12:27:21;;;;;;;9.10;1.97;;;;;;;;;;4973016;28;21026;-75
2023/11/15 12:29:47;;;;;;;4.33;1.50;;;;;;;;;;4971987;28;20906;-74
2023/11/15 12:32:13;;;;;;;5.30;1.40;;;;;;;;;;4962163;28;20416;-74
2023/11/15 12:34:39;;;;;;;3.63;1.40;;;;;;;;;;4953673;29;20440;-74
2023/11/15 12:37:06;;;;;;;3.93;1.33;;;;;;;;;;4953913;29;20921;-74
2023/11/15 12:39:36;;;;;;;4.40;1.63;;;;;;;;;;4953709;29;20520;-74
2023/11/15 12:42:04;;;;;;;6.73;1.90;;;;;;;;;;4953686;29;20483;-74
2023/11/15 12:44:41;;;;;;;5.70;1.63;;;;;;;;;;4953690;29;20433;-74
2023/11/15 12:47:07;;;;;;;2.33;1.13;;;;;;;;;;4953668;29;20522;-73
2023/11/15 12:49:34;;;;;;;6.27;2.03;;;;;;;;;;4962194;28;20427;-74
2023/11/15 12:52:00;;;;;;;3.60;1.50;;;;;;;;;;4953319;29;20864;-73
2023/11/15 12:54:26;;;;;;;2.97;1.40;;;;;;;;;;4967945;28;20459;-72
2023/11/15 12:57:03;;;;;;;3.70;1.40;;;;;;;;;;4968395;28;20813;-72
2023/11/15 12:59:33;;;;;;;2.17;1.70;;;;;;;;;;4970916;28;20430;-76
2023/11/15 13:01:59;;;;;;;5.30;1.50;;;;;;;;;;4976877;28;20420;-74
2023/11/15 13:04:25;;;;;;;2.03;1.07;;;;;;;;;;4976517;28;20942;-73
2023/11/15 13:06:52;;;;;;;1.03;1.00;;;;;;;;;;4976003;28;20490;-70
2023/11/15 13:09:22;;;;;;;2.33;1.10;;;;;;;;;;4978801;28;20907;-71
2023/11/15 13:11:48;;;;;;;2.57;1.30;;;;;;;;;;4980725;28;20444;-72
2023/11/15 13:14:18;;;;;;;3.07;1.73;;;;;;;;;;4985217;28;20436;-71
2023/11/15 13:16:44;;;;;;;2.40;1.10;;;;;;;;;;4987596;28;20428;-70
2023/11/15 13:19:10;;;;;;;2.83;1.00;;;;;;;;;;4982227;28;20907;-71
2023/11/15 13:21:36;;;;;;;2.07;1.10;;;;;;;;;;4981758;28;20438;-70
2023/11/15 13:24:02;;;;;;;2.63;1.33;;;;;;;;;;4976799;28;20420;-71
2023/11/15 13:26:28;;;;;;;2.13;1.10;;;;;;;;;;4975623;28;20478;-72
2023/11/15 13:28:54;;;;;;;6.80;1.40;;;;;;;;;;4975208;28;20416;-72
2023/11/15 13:31:25;;;;;;;2.83;1.23;;;;;;;;;;4976484;28;20495;-72
2023/11/15 13:33:52;;;;;;;4.93;1.50;;;;;;;;;;4976080;28;20411;-72
2023/11/15 13:36:19;;;;;;;2.63;1.37;;;;;;;;;;4956882;28;20466;-70
2023/11/15 13:38:45;;;;;;;3.77;1.30;;;;;;;;;;4965640;28;20416;-72
2023/11/15 13:41:13;;;;;;;2.60;1.47;;;;;;;;;;4975894;28;20415;-71
2023/11/15 13:43:46;;;;;;;3.63;1.40;;;;;;;;;;4975708;28;20422;-71
2023/11/15 13:46:12;;;;;;;4.27;1.60;;;;;;;;;;4975798;28;21000;-73
2023/11/15 13:48:39;;;;;;;4.10;1.70;;;;;;;;;;4975962;28;20495;-72
2023/11/15 13:51:10;;;;;;;5.23;1.50;;;;;;;;;;4975730;28;20786;-72
2023/11/15 13:53:38;;;;;;;4.27;1.63;;;;;;;;;;4976127;28;20400;-73
2023/11/15 13:56:05;;;;;;;10.43;1.73;;;;;;;;;;4975079;28;20998;-72
2023/11/15 13:58:31;;;;;;;3.60;1.40;;;;;;;;;;4975795;28;20418;-72
2023/11/15 14:00:58;;;;;;;3.03;1.70;;;;;;;;;;4975670;28;20411;-71
2023/11/15 14:03:26;;;;;;;3.60;1.50;;;;;;;;;;4980374;28;20785;-73
2023/11/15 14:05:52;;;;;;;9.00;1.87;;;;;;;;;;4994814;28;20459;-72
2023/11/15 14:08:18;;;;;;;6.63;2.33;;;;;;;;;;4994705;28;20921;-67
2023/11/15 14:10:45;;;;;;;6.30;1.73;;;;;;;;;;4994741;28;20411;-67
2023/11/15 14:13:11;;;;;;;3.10;1.70;;;;;;;;;;4994367;28;20407;-73
2023/11/15 14:15:37;;;;;;;3.73;1.60;;;;;;;;;;4989441;28;20456;-74
2023/11/15 14:18:04;;;;;;;4.20;2.37;;;;;;;;;;4975024;28;20412;-74
2023/11/15 14:20:31;;;;;;;15.03;1.67;;;;;;;;;;4975098;28;20421;-73
2023/11/15 14:22:57;;;;;;;4.27;2.33;;;;;;;;;;4975110;28;20487;-75
2023/11/15 14:25:23;;;;;;;1.57;1.53;;;;;;;;;;4993952;28;20442;-72
2023/11/15 14:27:51;;;;;;;4.30;1.60;;;;;;;;;;4994452;28;20447;-72
2023/11/15 14:30:19;;;;;;;9.13;1.90;;;;;;;;;;4995366;28;20426;-72
2023/11/15 14:32:46;;;;;;;4.20;1.40;;;;;;;;;;5000659;28;20415;-72
2023/11/15 14:35:12;;;;;;;3.93;1.37;;;;;;;;;;5003860;28;20930;-71
2023/11/15 14:37:38;;;;;;;10.30;1.60;;;;;;;;;;5005754;28;20411;-71
2023/11/15 14:40:08;;;;;;;5.23;1.77;;;;;;;;;;5006514;28;20417;-72
2023/11/15 14:42:34;;;;;;;2.80;1.63;;;;;;;;;;5001056;28;20423;-72
2023/11/15 14:45:01;;;;;;;6.13;1.70;;;;;;;;;;4995505;28;20438;-72
2023/11/15 14:47:29;;;;;;;3.17;1.63;;;;;;;;;;4997668;28;20912;-72
2023/11/15 14:49:56;;;;;;;1.90;1.53;;;;;;;;;;4994805;28;20422;-72
2023/11/15 14:52:25;;;;;;;6.30;1.67;;;;;;;;;;4995303;28;20410;-73
2023/11/15 14:54:52;;;;;;;15.00;1.70;;;;;;;;;;4994729;28;20501;-73
2023/11/15 14:57:20;;;;;;;2.70;1.37;;;;;;;;;;4994729;28;20422;-72
2023/11/15 14:59:47;;;;;;;4.07;1.67;;;;;;;;;;4994592;28;20415;-72
2023/11/15 15:02:13;;;;;;;3.23;1.80;;;;;;;;;;4975281;28;20511;-72
2023/11/15 15:04:41;;;;;;;3.20;1.50;;;;;;;;;;4974920;28;20431;-72
2023/11/15 15:07:08;;;;;;;5.80;3.10;;;;;;;;;;4975474;28;20481;-72
2023/11/15 15:09:37;;;;;;;7.10;1.77;;;;;;;;;;4975525;28;20471;-72
2023/11/15 15:12:04;;;;;;;5.30;1.40;;;;;;;;;;4975532;28;20404;-73
2023/11/15 15:14:31;;;;;;;4.10;1.50;;;;;;;;;;4974284;28;20447;-73
2023/11/15 15:16:57;;;;;;;2.33;1.40;;;;;;;;;;4974823;28;20502;-73
2023/11/15 15:19:23;;;;;;;11.23;3.00;;;;;;;;;;4974993;28;20447;-73
2023/11/15 15:21:50;;;;;;;8.97;1.80;;;;;;;;;;4974550;28;20451;-73
2023/11/15 15:24:16;;;;;;;2.00;1.47;;;;;;;;;;4974466;28;20436;-73
2023/11/15 15:26:42;;;;;;;8.30;1.97;;;;;;;;;;4974388;28;20463;-73
2023/11/15 15:29:08;;;;;;;9.80;2.33;;;;;;;;;;4979577;28;20840;-72
2023/11/15 15:31:34;;;;;;;6.00;1.77;;;;;;;;;;4987071;28;20491;-72
2023/11/15 15:34:03;;;;;;;8.40;1.70;;;;;;;;;;4987317;28;20416;-71
2023/11/15 15:36:29;;;;;;;3.20;1.33;;;;;;;;;;4986296;28;20447;-71
2023/11/15 15:38:56;;;;;;;3.93;1.70;;;;;;;;;;4986896;28;20424;-71
2023/11/15 15:41:23;;;;;;;3.53;1.63;;;;;;;;;;4984959;28;20408;-71
2023/11/15 15:43:50;;;;;;;3.90;1.50;;;;;;;;;;4984482;28;20412;-71
2023/11/15 15:46:17;;;;;;;5.57;1.63;;;;;;;;;;4985092;28;20459;-72
2023/11/15 15:48:43;;;;;;;5.23;1.53;;;;;;;;;;4976482;28;20814;-72
2023/11/15 15:51:11;;;;;;;1.37;1.27;;;;;;;;;;4973216;28;20952;-74
2023/11/15 15:53:37;;;;;;;13.63;1.87;;;;;;;;;;4962780;28;20471;-73
2023/11/15 15:56:04;;;;;;;6.57;1.60;;;;;;;;;;4956172;28;20444;-71
2023/11/15 15:58:30;;;;;;;4.20;1.57;;;;;;;;;;4955698;28;20451;-71
2023/11/15 16:00:56;;;;;;;4.20;1.73;;;;;;;;;;4954316;29;20416;-69
2023/11/15 16:03:23;;;;;;;2.87;1.40;;;;;;;;;;4954117;29;20417;-70
2023/11/15 16:05:49;;;;;;;3.00;2.10;;;;;;;;;;4952640;29;20475;-69
2023/11/15 16:08:15;;;;;;;5.50;1.70;;;;;;;;;;4955215;28;20513;-69
2023/11/15 16:10:42;;;;;;;6.90;1.63;;;;;;;;;;4954241;29;20445;-69
2023/11/15 16:13:09;;;;;;;9.40;2.33;;;;;;;;;;4954212;29;20412;-70
2023/11/15 16:15:35;;;;;;;2.43;1.40;;;;;;;;;;4955435;28;20466;-69
2023/11/15 16:18:01;;;;;;;3.70;1.90;;;;;;;;;;4954137;29;20908;-70
2023/11/15 16:20:27;;;;;;;4.50;1.60;;;;;;;;;;4954018;29;20760;-71
2023/11/15 16:22:54;;;;;;;4.40;1.90;;;;;;;;;;4953781;29;20784;-70
2023/11/15 16:25:21;;;;;;;3.97;1.93;;;;;;;;;;4954076;29;20906;-72
2023/11/15 16:27:46;;;;;;;6.00;1.63;;;;;;;;;;4954269;29;20408;-72
2023/11/15 16:30:13;;;;;;;2.13;1.60;;;;;;;;;;4954133;29;20429;-73
2023/11/15 16:32:39;;;;;;;6.63;1.63;;;;;;;;;;4954096;29;20476;-72
2023/11/15 16:35:07;;;;;;;8.30;1.80;;;;;;;;;;4953973;29;20891;-73
2023/11/15 16:37:33;;;;;;;6.27;1.57;;;;;;;;;;4953903;29;20419;-73
2023/11/15 16:39:59;;;;;;;1.83;1.50;;;;;;;;;;4953992;29;20416;-73
2023/11/15 16:42:26;;;;;;;4.87;2.43;;;;;;;;;;4957620;28;20460;-71
2023/11/15 16:44:52;;;;;;;3.63;1.80;;;;;;;;;;4959527;28;20470;-71
2023/11/15 16:47:22;;;;;;;10.03;2.10;;;;;;;;;;4953968;29;20476;-72
2023/11/15 16:49:49;;;;;;;6.33;2.17;;;;;;;;;;4959851;28;20413;-72
2023/11/15 16:52:15;;;;;;;5.87;2.00;;;;;;;;;;4958791;28;20475;-71
2023/11/15 16:54:42;;;;;;;3.70;2.30;;;;;;;;;;4967776;28;20543;-72
2023/11/15 16:57:08;;;;;;;5.93;1.90;;;;;;;;;;4978400;28;20489;-72
2023/11/15 16:59:35;;;;;;;3.23;1.50;;;;;;;;;;4983109;28;20934;-72
2023/11/15 17:02:01;;;;;;;4.43;1.80;;;;;;;;;;4974639;28;20930;-73
2023/11/15 17:04:27;;;;;;;4.53;1.87;;;;;;;;;;4978665;28;20522;-73
2023/11/15 17:06:58;;;;;;;3.50;1.60;;;;;;;;;;4967499;28;20493;-76
2023/11/15 17:09:24;;;;;;;4.93;1.93;;;;;;;;;;4979429;28;20422;-76
2023/11/15 17:11:50;;;;;;;9.10;2.40;;;;;;;;;;4973711;28;20425;-75
2023/11/15 17:14:18;;;;;;;8.13;1.97;;;;;;;;;;4975584;28;20457;-76
2023/11/15 17:16:48;;;;;;;7.73;2.30;;;;;;;;;;4975641;28;20839;-76
2023/11/15 17:19:19;;;;;;;4.17;1.90;;;;;;;;;;4977178;28;20537;-76
2023/11/15 17:21:45;;;;;;;8.20;2.33;;;;;;;;;;4974661;28;20491;-75
2023/11/15 17:24:11;;;;;;;4.73;1.90;;;;;;;;;;4976529;28;20419;-75
2023/11/15 17:26:37;;;;;;;4.60;2.50;;;;;;;;;;4979447;28;20467;-75
2023/11/15 17:29:03;;;;;;;10.93;2.70;;;;;;;;;;4979369;28;20416;-75
2023/11/15 17:31:29;;;;;;;15.57;4.23;;;;;;;;;;4970668;28;20411;-74
2023/11/15 17:33:57;;;;;;;9.80;2.73;;;;;;;;;;4985351;28;20437;-72
2023/11/15 17:36:23;;;;;;;7.80;3.07;;;;;;;;;;4966983;28;20427;-71
2023/11/15 17:38:49;;;;;;;6.80;3.37;;;;;;;;;;4976305;28;20423;-72
2023/11/15 17:41:18;;;;;;;10.30;4.37;;;;;;;;;;4974629;28;20424;-72
2023/11/15 17:43:44;;;;;;;18.43;3.73;;;;;;;;;;4971621;28;20424;-72
2023/11/15 17:46:10;;;;;;;8.07;3.70;;;;;;;;;;4974799;28;20471;-72
2023/11/15 17:48:37;;;;;;;12.40;4.40;;;;;;;;;;4978533;28;20506;-72
2023/11/15 17:51:03;;;;;;;10.97;4.10;;;;;;;;;;4977842;28;20779;-70
2023/11/15 17:53:29;;;;;;;8.00;4.17;;;;;;;;;;4978200;28;20970;-71
2023/11/15 17:55:55;;;;;;;7.10;4.20;;;;;;;;;;4977634;28;20435;-72
2023/11/15 17:58:22;;;;;;;7.53;3.40;;;;;;;;;;4969138;28;20548;-73
2023/11/15 18:00:48;;;;;;;10.90;3.93;;;;;;;;;;4962295;28;20422;-72
2023/11/15 18:03:14;;;;;;;9.73;4.43;;;;;;;;;;4975362;28;20723;-72
2023/11/15 18:05:40;;;;;;;14.17;4.70;;;;;;;;;;4973445;28;20466;-71
2023/11/15 18:08:07;;;;;;;13.50;5.70;;;;;;;;;;4974188;28;20420;-71
2023/11/15 18:10:33;;;;;;;16.33;5.30;;;;;;;;;;4974478;28;20427;-70
2023/11/15 18:12:59;;;;;;;11.80;4.73;;;;;;;;;;4975745;28;20447;-71
2023/11/15 18:15:25;;;;;;;15.80;6.23;;;;;;;;;;4967011;28;20456;-70
2023/11/15 18:17:53;;;;;;;15.93;6.33;;;;;;;;;;4970139;28;20420;-71
2023/11/15 18:20:21;;;;;;;13.20;5.30;;;;;;;;;;4975175;28;20423;-71
2023/11/15 18:22:48;;;;;;;9.23;3.50;;;;;;;;;;4980833;28;20480;-72
2023/11/15 18:25:15;;;;;;;7.30;3.03;;;;;;;;;;4984544;28;20520;-71
2023/11/15 18:27:43;;;;;;;2.90;2.50;;;;;;;;;;4956012;28;20440;-71
2023/11/15 18:30:12;;;;;;;7.10;2.73;;;;;;;;;;4956408;28;20465;-71
2023/11/15 18:32:38;;;;;;;9.37;2.97;;;;;;;;;;4961271;28;20400;-72
2023/11/15 18:35:04;;;;;;;6.57;3.20;;;;;;;;;;4982537;28;20438;-72
2023/11/15 18:37:32;;;;;;;6.60;2.40;;;;;;;;;;4963476;28;20812;-71
2023/11/15 18:39:58;;;;;;;8.90;3.73;;;;;;;;;;4955922;29;20412;-70
2023/11/15 18:42:24;;;;;;;6.53;3.00;;;;;;;;;;4957358;29;20415;-69
2023/11/15 18:44:53;;;;;;;6.83;2.87;;;;;;;;;;4956455;29;20436;-71
2023/11/15 18:47:19;;;;;;;6.67;2.63;;;;;;;;;;4956245;29;20456;-70
2023/11/15 18:49:47;;;;;;;2.73;2.40;;;;;;;;;;4956041;29;20919;-70
2023/11/15 18:52:13;;;;;;;10.10;2.80;;;;;;;;;;4955924;28;20433;-78
2023/11/15 18:54:39;;;;;;;3.53;2.40;;;;;;;;;;4962037;28;20798;-69
2023/11/15 18:57:06;;;;;;;7.60;3.27;;;;;;;;;;4986134;28;20415;-71
2023/11/15 18:59:33;;;;;;;16.47;6.90;;;;;;;;;;4956113;28;20417;-70
2023/11/15 19:01:59;;;;;;;30.60;11.47;;;;;;;;;;4967149;28;20436;-71
2023/11/15 19:04:26;;;;;;;10.63;6.63;;;;;;;;;;4970328;28;20531;-70
2023/11/15 19:06:52;;;;;;;4.37;2.63;;;;;;;;;;4954676;28;20571;-70
2023/11/15 19:09:23;;;;;;;16.00;4.17;;;;;;;;;;4958774;28;20753;-70
2023/11/15 19:11:50;;;;;;;18.07;7.37;;;;;;;;;;4965599;28;20499;-72
2023/11/15 19:14:16;;;;;;;12.73;4.63;;;;;;;;;;4968603;28;20924;-70
2023/11/15 19:16:42;;;;;;;11.77;5.30;;;;;;;;;;4973579;28;20503;-71
2023/11/15 19:19:09;;;;;;;21.63;8.60;;;;;;;;;;4966208;28;20444;-71
2023/11/15 19:21:35;;;;;;;14.80;4.60;;;;;;;;;;4958239;28;20408;-72
2023/11/15 19:24:02;;;;;;;12.83;4.97;;;;;;;;;;4972031;28;20883;-72
2023/11/15 19:26:28;;;;;;;13.00;5.60;;;;;;;;;;4979579;28;20470;-71
2023/11/15 19:28:54;;;;;;;15.00;4.27;;;;;;;;;;4955246;28;20424;-71
2023/11/15 19:31:21;;;;;;;7.07;3.10;;;;;;;;;;4992007;28;20411;-74
2023/11/15 19:33:48;;;;;;;13.70;3.93;;;;;;;;;;4998289;28;20412;-77
2023/11/15 19:36:14;;;;;;;9.37;3.73;;;;;;;;;;4994793;28;20459;-71
2023/11/15 19:38:40;;;;;;;8.50;2.40;;;;;;;;;;4978454;28;20918;-71
2023/11/15 19:41:08;;;;;;;16.90;3.30;;;;;;;;;;4961896;28;20425;-72
2023/11/15 19:43:34;;;;;;;8.47;3.73;;;;;;;;;;4963736;28;20432;-71
2023/11/15 19:46:01;;;;;;;7.73;3.00;;;;;;;;;;4969861;28;20498;-71
2023/11/15 19:48:27;;;;;;;13.43;4.80;;;;;;;;;;4975909;28;20492;-70
2023/11/15 19:50:53;;;;;;;10.33;4.10;;;;;;;;;;4986166;28;20580;-71
2023/11/15 19:53:19;;;;;;;9.40;4.80;;;;;;;;;;4986899;28;20898;-71
2023/11/15 19:55:46;;;;;;;19.83;5.03;;;;;;;;;;4953571;29;20757;-72
2023/11/15 19:58:13;;;;;;;10.97;4.30;;;;;;;;;;4952564;29;20436;-70
2023/11/15 20:00:39;;;;;;;11.50;4.30;;;;;;;;;;4955711;29;20512;-71
2023/11/15 20:03:07;;;;;;;11.00;3.97;;;;;;;;;;4965014;28;20510;-69
2023/11/15 20:05:33;;;;;;;7.20;3.47;;;;;;;;;;4974654;28;20448;-72
2023/11/15 20:07:59;;;;;;;10.00;2.90;;;;;;;;;;4974119;28;20931;-72
2023/11/15 20:10:25;;;;;;;7.00;3.40;;;;;;;;;;4963708;28;20437;-75
2023/11/15 20:12:51;;;;;;;11.73;3.40;;;;;;;;;;4972989;28;20503;-77
2023/11/15 20:15:18;;;;;;;11.07;4.57;;;;;;;;;;4973667;28;20459;-76
2023/11/15 20:17:44;;;;;;;9.30;3.50;;;;;;;;;;4970411;28;20416;-76
2023/11/15 20:20:14;;;;;;;7.03;2.93;;;;;;;;;;4974589;28;20910;-74
2023/11/15 20:22:40;;;;;;;4.73;3.07;;;;;;;;;;4973464;28;20498;-75
2023/11/15 20:25:07;;;;;;;2.93;1.97;;;;;;;;;;4973685;28;20459;-74
2023/11/15 20:27:36;;;;;;;5.50;2.63;;;;;;;;;;4971417;28;20475;-75
2023/11/15 20:30:02;;;;;;;7.80;2.63;;;;;;;;;;4974374;28;20423;-75
2023/11/15 20:32:28;;;;;;;7.33;2.77;;;;;;;;;;4957170;28;20468;-75
2023/11/15 20:34:55;;;;;;;7.53;2.37;;;;;;;;;;4954585;28;20437;-75
2023/11/15 20:37:21;;;;;;;8.43;3.27;;;;;;;;;;4960233;28;20460;-75
2023/11/15 20:39:49;;;;;;;10.47;2.60;;;;;;;;;;4972299;28;20518;-74
2023/11/15 20:42:15;;;;;;;7.23;2.83;;;;;;;;;;4971814;28;20430;-74